createdAt,value
2022-09-09T00:06:24.845Z,372.85
2022-09-09T00:13:43.558Z,381.73
2022-09-09T00:21:03.944Z,362.92
2022-09-09T00:28:15.753Z,356.80
2022-09-09T00:35:19.790Z,374.80
2022-09-09T00:42:25.045Z,356.55
2022-09-09T00:50:01.031Z,340.25
2022-09-09T00:57:32.175Z,351.35
2022-09-09T01:04:35.567Z,345.25
2022-09-09T01:11:39.074Z,339.45
2022-09-09T01:18:46.573Z,342.52
2022-09-09T01:26:10.120Z,353.85
2022-09-09T01:33:14.802Z,349.88
2022-09-09T01:40:17.095Z,332.83
2022-09-09T01:47:19.202Z,340.27
2022-09-09T01:54:41.020Z,328.42
2022-09-09T02:02:10.722Z,339.15
2022-09-09T02:09:15.903Z,337.85
2022-09-09T02:16:35.239Z,342.40
2022-09-09T02:23:37.111Z,351.97
2022-09-09T02:30:43.108Z,363.40
2022-09-09T02:37:47.142Z,359.25
2022-09-09T02:44:50.104Z,364.60
2022-09-09T02:52:03.573Z,378.00
2022-09-09T02:59:06.364Z,372.80
2022-09-09T03:06:10.935Z,370.30
2022-09-09T03:13:16.206Z,385.30
2022-09-09T03:20:19.656Z,400.15
2022-09-09T03:27:21.473Z,417.60
2022-09-09T03:34:23.218Z,421.83
2022-09-09T03:41:25.392Z,431.98
2022-09-09T03:48:28.990Z,421.63
2022-09-09T03:55:31.367Z,409.92
2022-09-09T04:02:33.130Z,412.77
2022-09-09T04:09:35.679Z,412.48
2022-09-09T04:16:38.420Z,409.42
2022-09-09T04:23:40.427Z,411.08
2022-09-09T04:30:42.492Z,405.27
2022-09-09T04:37:45.862Z,404.23
2022-09-09T04:44:47.642Z,401.50
2022-09-09T04:51:52.835Z,414.42
2022-09-09T04:58:55.518Z,406.25
2022-09-09T05:06:27.554Z,393.92
2022-09-09T05:13:33.133Z,414.40
2022-09-09T05:20:35.423Z,414.83
2022-09-09T05:27:37.472Z,411.67
2022-09-09T05:34:40.281Z,416.33
2022-09-09T05:41:42.323Z,425.35
2022-09-09T05:48:47.271Z,426.42
2022-09-09T05:55:49.802Z,404.85
2022-09-09T06:02:53.495Z,376.67
2022-09-09T06:09:56.685Z,384.35
2022-09-09T06:16:58.531Z,369.80
2022-09-09T06:24:04.789Z,387.58
2022-09-09T06:31:08.307Z,394.45
2022-09-09T06:38:10.263Z,404.52
2022-09-09T06:45:13.371Z,421.25
2022-09-09T06:52:25.871Z,426.85
2022-09-09T06:59:29.078Z,427.42
2022-09-09T07:06:32.610Z,418.48
2022-09-09T07:13:36.425Z,408.25
2022-09-09T07:20:39.183Z,380.08
2022-09-09T07:27:41.637Z,369.67
2022-09-09T07:34:43.696Z,362.38
2022-09-09T07:41:47.285Z,363.23
2022-09-09T07:48:53.034Z,369.55
2022-09-09T07:55:56.826Z,381.73
2022-09-09T08:02:58.744Z,379.77
2022-09-09T08:10:00.326Z,372.30
2022-09-09T08:17:05.931Z,355.52
2022-09-09T08:24:09.128Z,352.42
2022-09-09T08:31:14.302Z,316.73
2022-09-09T08:38:19.090Z,305.70
2022-09-09T08:45:38.442Z,314.48
2022-09-09T08:52:51.233Z,305.20
2022-09-09T08:59:55.757Z,305.65
2022-09-09T09:07:08.311Z,303.77
2022-09-09T09:14:16.746Z,310.33
2022-09-09T09:21:47.043Z,331.67
2022-09-09T09:28:51.195Z,362.08
2022-09-09T09:35:54.504Z,386.75
2022-09-09T09:43:01.531Z,329.83
2022-09-09T09:50:05.873Z,156.02
2022-09-09T09:57:12.767Z,105.63
2022-09-09T10:04:21.656Z,95.53
2022-09-09T10:11:25.598Z,84.72
2022-09-09T10:18:32.257Z,83.57
2022-09-09T10:25:59.413Z,378.98
2022-09-09T10:33:16.872Z,244.43
2022-09-09T10:40:21.178Z,291.40
2022-09-09T10:47:54.029Z,235.38
2022-09-09T10:55:21.416Z,225.82
2022-09-09T11:02:33.494Z,145.18
2022-09-09T11:09:39.217Z,58.40
2022-09-09T11:16:49.671Z,55.95
2022-09-09T11:24:00.903Z,31.45
2022-09-09T11:31:02.484Z,22.02
2022-09-09T11:38:28.759Z,16.83
2022-09-09T11:45:30.382Z,18.90
2022-09-09T11:52:39.892Z,21.70
2022-09-09T11:59:51.224Z,33.13
2022-09-09T12:07:04.214Z,36.40
2022-09-09T12:14:05.826Z,32.97
2022-09-09T12:21:26.822Z,21.52
2022-09-09T12:28:41.704Z,15.30
2022-09-09T12:35:44.322Z,15.77
2022-09-09T12:42:45.892Z,14.10
2022-09-09T12:49:47.714Z,12.35
2022-09-09T12:56:49.360Z,16.38
2022-09-09T13:03:51.005Z,13.60
2022-09-09T13:11:02.634Z,15.43
2022-09-09T13:18:07.206Z,15.40
2022-09-09T13:25:12.369Z,15.20
2022-09-09T13:32:17.848Z,13.27
2022-09-09T13:39:19.866Z,17.08
2022-09-09T13:46:36.570Z,17.67
2022-09-09T13:53:38.213Z,17.20
2022-09-09T14:00:40.669Z,13.02
2022-09-09T14:07:43.243Z,15.30
2022-09-09T14:14:44.924Z,16.05
2022-09-09T14:21:46.519Z,13.93
2022-09-09T14:28:56.150Z,15.73
2022-09-09T14:36:01.885Z,16.98
2022-09-09T14:43:03.937Z,16.38
2022-09-09T14:50:07.066Z,15.52
2022-09-09T14:57:08.640Z,16.33
2022-09-09T15:04:12.534Z,15.10
2022-09-09T15:11:14.785Z,15.52
2022-09-09T15:18:16.861Z,15.57
2022-09-09T15:25:18.973Z,14.35
2022-09-09T15:32:20.560Z,18.90
2022-09-09T15:39:22.955Z,16.92
2022-09-09T15:46:29.402Z,18.23
2022-09-09T15:53:33.199Z,22.80
2022-09-09T16:00:35.268Z,13.23
2022-09-09T16:07:37.023Z,13.88
2022-09-09T16:14:39.713Z,21.77
2022-09-09T16:21:49.712Z,16.77
2022-09-09T16:28:51.334Z,12.35
2022-09-09T16:35:52.949Z,20.42
2022-09-09T16:42:54.929Z,33.28
2022-09-09T16:49:56.514Z,34.45
2022-09-09T16:56:58.598Z,28.30
2022-09-09T17:04:04.293Z,23.17
2022-09-09T17:11:19.254Z,38.40
2022-09-09T17:18:21.663Z,74.32
2022-09-09T17:25:23.864Z,67.00
2022-09-09T17:32:25.697Z,83.55
2022-09-09T17:39:27.314Z,92.20
2022-09-09T17:46:30.888Z,107.80
2022-09-09T17:53:37.476Z,123.65
2022-09-09T18:00:39.084Z,121.40
2022-09-09T18:07:40.649Z,131.07
2022-09-09T18:14:42.275Z,134.18
2022-09-09T18:21:44.547Z,130.98
2022-09-09T18:28:50.908Z,135.43
2022-09-09T18:35:52.544Z,143.52
2022-09-09T18:42:54.119Z,159.13
2022-09-09T18:49:56.175Z,172.77
2022-09-09T18:56:59.455Z,163.77
2022-09-09T19:04:01.400Z,172.65
2022-09-09T19:11:04.932Z,184.10
2022-09-09T19:18:06.753Z,179.15
2022-09-09T19:25:08.344Z,174.55
2022-09-09T19:39:34.427Z,188.80
2022-09-09T19:46:36.801Z,193.02
2022-09-09T19:53:40.079Z,201.93
2022-09-09T20:00:41.939Z,212.95
2022-09-09T20:07:45.159Z,219.80
2022-09-09T20:14:47.200Z,221.30
2022-09-09T20:21:49.435Z,220.23
2022-09-09T20:28:52.116Z,220.02
2022-09-09T20:35:54.082Z,230.57
2022-09-09T20:42:55.650Z,249.13
2022-09-09T20:49:57.252Z,237.50
2022-09-09T20:57:00.316Z,241.63
2022-09-09T21:04:02.343Z,256.05
2022-09-09T21:11:04.424Z,259.05
2022-09-09T21:18:05.953Z,266.25
2022-09-09T21:25:07.918Z,271.00
2022-09-09T21:32:09.503Z,257.42
2022-09-09T21:39:11.082Z,252.05
2022-09-09T21:46:14.613Z,282.02
2022-09-09T21:53:18.090Z,272.88
2022-09-09T22:00:19.727Z,269.27
2022-09-09T22:07:21.324Z,280.48
2022-09-09T22:14:23.048Z,282.33
2022-09-09T22:21:26.044Z,292.63
2022-09-09T22:28:27.620Z,297.75
2022-09-09T22:35:29.197Z,312.08
2022-09-09T22:42:30.839Z,314.92
2022-09-09T22:49:32.439Z,320.52
2022-09-09T22:56:34.149Z,307.50
2022-09-09T23:03:35.783Z,305.45
2022-09-09T23:10:40.425Z,311.75
2022-09-09T23:17:42.181Z,305.17
2022-09-09T23:24:43.839Z,312.33
2022-09-09T23:31:45.687Z,305.70
2022-09-09T23:38:47.451Z,312.80
2022-09-09T23:45:50.316Z,311.33
2022-09-09T23:52:52.261Z,315.02
2022-09-09T23:59:53.828Z,306.40
